KDLZ

Delaware Municipal - Jim Moore Field Airport

Delaware, Ohio, USA
METAR KDLZ 172055Z AUTO 00000KT 10SM -DZ SCT040 BKN050 OVC070 03/02 A3010 RMK AO2
Observed Flight Rules
Dec-17 @ 20:55 UTC (33 minutes ago) Visual Flight Rules
Wind Visibility Clouds Conditions
Calm 10 miles
  • Scattered at 4,000' AGL
  • Broken at 5,000' AGL
  • Overcast at 7,000' AGL
  • Light Drizzle
Temperatures Readings
Current 3°C / 37°F
Dewpoint 2°C / 36°F
Humidity 93%
Altimeter 30.1" Hg
Pressure 1019 hPa
Elevation 289
METAR KDLZ 172055Z AUTO 00000KT 10SM -DZ SCT040 BKN050 OVC070 03/02 A3010 RMK AO2
Observed Flight Rules
Dec-17 @ 20:55 UTC
(33 minutes ago)
VFR
Wind Visibility
Calm 10 miles
Clouds
  • Scattered at 4,000' AGL
  • Broken at 5,000' AGL
  • Overcast at 7,000' AGL
Conditions
  • Light Drizzle
Temperature Dewpoint
3°C / 37°F 2°C / 36°F
Humidity Altimeter Pressure
93% 30.1" Hg 1019 hPa